createdAt,value
2019-01-24T00:00:58.356Z,86.53
2019-01-24T00:03:28.609Z,88.10
2019-01-24T00:05:59.905Z,83.53
2019-01-24T00:08:30.172Z,72.15
2019-01-24T00:10:57.510Z,80.37
2019-01-24T00:13:26.542Z,79.87
2019-01-24T00:15:53.249Z,86.50
2019-01-24T00:18:21.310Z,85.35
2019-01-24T00:20:49.211Z,74.75
2019-01-24T00:23:19.581Z,78.03
2019-01-24T00:25:51.020Z,78.30
2019-01-24T00:28:21.942Z,82.30
2019-01-24T00:30:49.357Z,76.43
2019-01-24T00:33:17.015Z,89.03
2019-01-24T00:35:51.389Z,76.50
2019-01-24T00:38:19.271Z,78.17
2019-01-24T00:40:46.974Z,86.80
2019-01-24T00:43:18.595Z,68.63
2019-01-24T00:45:46.904Z,77.20
2019-01-24T00:48:14.851Z,87.40
2019-01-24T00:50:42.766Z,77.72
2019-01-24T00:53:10.641Z,88.47
2019-01-24T00:55:38.310Z,70.00
2019-01-24T00:58:05.269Z,88.53
2019-01-24T01:00:35.179Z,77.70
2019-01-24T01:03:02.955Z,79.90
2019-01-24T01:05:31.039Z,85.97
2019-01-24T01:10:50.544Z,87.27
2019-01-24T01:13:17.779Z,73.73
2019-01-24T01:15:45.654Z,74.17
2019-01-24T01:18:17.240Z,73.80
2019-01-24T01:20:46.185Z,79.43
2019-01-24T01:23:15.044Z,72.20
2019-01-24T01:25:47.503Z,79.94
2019-01-24T01:28:18.187Z,79.93
2019-01-24T01:30:45.988Z,63.60
2019-01-24T01:33:14.679Z,78.72
2019-01-24T01:35:43.156Z,85.00
2019-01-24T01:38:13.393Z,92.03
2019-01-24T01:40:44.900Z,103.23
2019-01-24T01:43:15.753Z,105.03
2019-01-24T01:45:45.400Z,86.73
2019-01-24T01:48:16.512Z,80.62
2019-01-24T01:50:44.922Z,87.08
2019-01-24T01:53:12.113Z,87.07
2019-01-24T01:55:53.143Z,84.97
2019-01-24T01:58:09.586Z,95.43
2019-01-24T02:00:37.618Z,104.43
2019-01-24T02:03:07.078Z,95.60
2019-01-24T02:05:39.859Z,97.40
2019-01-24T02:08:07.534Z,91.57
2019-01-24T02:10:36.428Z,100.57
2019-01-24T02:13:06.953Z,115.30
2019-01-24T02:18:18.345Z,95.00
2019-01-24T02:20:45.472Z,110.07
2019-01-24T02:23:30.414Z,82.47
2019-01-24T02:26:01.209Z,79.73
2019-01-24T02:28:32.223Z,82.47
2019-01-24T02:30:59.849Z,96.30
2019-01-24T02:33:27.935Z,89.80
2019-01-24T02:38:45.465Z,77.63
2019-01-24T02:41:12.098Z,84.33
2019-01-24T02:43:39.037Z,86.83
2019-01-24T02:46:05.962Z,76.62
2019-01-24T02:48:32.762Z,71.80
2019-01-24T02:50:59.428Z,98.27
2019-01-24T02:53:26.278Z,86.90
2019-01-24T02:55:53.237Z,108.73
2019-01-24T02:58:20.217Z,78.63
2019-01-24T03:00:47.219Z,87.97
2019-01-24T03:03:15.757Z,97.54
2019-01-24T03:05:43.102Z,92.60
2019-01-24T03:08:09.800Z,90.03
2019-01-24T03:10:36.506Z,78.73
2019-01-24T03:13:03.439Z,82.27
2019-01-24T03:15:31.022Z,72.80
2019-01-24T03:17:57.799Z,96.87
2019-01-24T03:20:24.734Z,85.63
2019-01-24T03:22:51.533Z,85.93
2019-01-24T03:25:18.570Z,86.17
2019-01-24T03:27:46.003Z,79.07
2019-01-24T03:30:12.633Z,101.90
2019-01-24T03:32:39.317Z,83.97
2019-01-24T03:35:06.135Z,89.30
2019-01-24T03:37:33.119Z,78.83
2019-01-24T03:39:59.899Z,76.77
2019-01-24T03:42:26.523Z,78.20
2019-01-24T03:44:53.275Z,90.73
2019-01-24T03:47:20.263Z,97.85
2019-01-24T03:49:47.253Z,72.10
2019-01-24T03:52:14.250Z,79.90
2019-01-24T03:54:40.974Z,82.73
2019-01-24T03:57:07.691Z,73.07
2019-01-24T03:59:34.676Z,89.50
2019-01-24T04:02:01.691Z,84.83
2019-01-24T04:04:28.676Z,64.90
2019-01-24T04:06:55.378Z,57.45
2019-01-24T04:09:21.970Z,67.43
2019-01-24T04:11:48.721Z,69.03
2019-01-24T04:14:17.147Z,66.50
2019-01-24T04:16:43.850Z,54.10
2019-01-24T04:19:11.092Z,66.00
2019-01-24T04:21:38.114Z,58.47
2019-01-24T04:24:04.923Z,65.37
2019-01-24T04:26:32.140Z,58.00
2019-01-24T04:28:58.946Z,54.43
2019-01-24T04:31:25.590Z,57.87
2019-01-24T04:33:52.516Z,50.17
2019-01-24T04:36:21.436Z,67.33
2019-01-24T04:38:52.902Z,54.83
2019-01-24T04:41:19.505Z,57.93
2019-01-24T04:43:48.836Z,56.20
2019-01-24T04:46:20.860Z,59.97
2019-01-24T04:48:49.953Z,58.97
2019-01-24T04:51:17.671Z,57.50
2019-01-24T04:53:47.786Z,56.80
2019-01-24T04:56:17.394Z,49.83
2019-01-24T04:58:44.484Z,43.03
2019-01-24T05:01:11.219Z,51.67
2019-01-24T05:03:37.792Z,54.60
2019-01-24T05:06:04.464Z,53.80
2019-01-24T05:08:31.576Z,49.27
2019-01-24T05:10:58.614Z,55.03
2019-01-24T05:13:25.628Z,50.98
2019-01-24T05:15:52.654Z,46.63
2019-01-24T05:18:19.626Z,50.83
2019-01-24T05:20:48.022Z,48.40
2019-01-24T05:23:14.769Z,50.30
2019-01-24T05:25:41.705Z,55.20
2019-01-24T05:28:08.744Z,50.65
2019-01-24T05:30:35.946Z,51.80
2019-01-24T05:33:02.965Z,65.23
2019-01-24T05:35:34.702Z,52.67
2019-01-24T05:37:58.370Z,56.80
2019-01-24T05:40:25.191Z,44.97
2019-01-24T05:42:52.043Z,42.98
2019-01-24T05:45:18.979Z,50.30
2019-01-24T05:47:45.989Z,46.68
2019-01-24T05:50:12.756Z,41.80
2019-01-24T05:52:39.407Z,48.30
2019-01-24T05:55:06.128Z,48.83
2019-01-24T05:57:33.123Z,44.64
2019-01-24T06:00:00.090Z,47.38
2019-01-24T06:02:26.840Z,46.20
2019-01-24T06:04:53.465Z,43.20
2019-01-24T06:07:20.235Z,44.07
2019-01-24T06:09:48.088Z,47.87
2019-01-24T06:12:14.745Z,47.47
2019-01-24T06:14:41.530Z,50.37
2019-01-24T06:17:08.474Z,44.33
2019-01-24T06:19:35.490Z,48.40
2019-01-24T06:22:02.113Z,51.00
2019-01-24T06:24:28.910Z,47.53
2019-01-24T06:26:55.878Z,39.77
2019-01-24T06:29:22.730Z,44.03
2019-01-24T06:31:49.698Z,58.90
2019-01-24T06:34:16.834Z,44.90
2019-01-24T06:39:16.151Z,50.37
2019-01-24T06:41:43.526Z,52.90
2019-01-24T06:44:10.406Z,55.43
2019-01-24T06:46:37.189Z,51.73
2019-01-24T06:49:04.028Z,49.17
2019-01-24T06:51:30.866Z,52.20
2019-01-24T06:53:57.547Z,52.70
2019-01-24T06:56:24.511Z,49.47
2019-01-24T06:58:51.139Z,53.47
2019-01-24T07:01:19.316Z,58.90
2019-01-24T07:03:46.023Z,56.87
2019-01-24T07:06:13.093Z,52.88
2019-01-24T07:08:41.785Z,58.10
2019-01-24T07:11:08.876Z,69.77
2019-01-24T07:13:35.919Z,65.70
2019-01-24T07:16:03.055Z,64.53
2019-01-24T07:18:33.438Z,69.27
2019-01-24T07:21:00.571Z,74.20
2019-01-24T07:23:27.273Z,71.23
2019-01-24T07:25:54.219Z,65.50
2019-01-24T07:28:21.142Z,70.70
2019-01-24T07:30:49.058Z,69.23
2019-01-24T07:33:15.688Z,73.00
2019-01-24T07:35:43.084Z,74.07
2019-01-24T07:38:09.892Z,79.57
2019-01-24T07:40:36.537Z,81.63
2019-01-24T07:43:03.565Z,86.73
2019-01-24T07:45:30.625Z,68.80
2019-01-24T07:47:57.610Z,73.50
2019-01-24T07:50:24.569Z,72.87
2019-01-24T07:52:51.484Z,75.10
2019-01-24T07:55:20.235Z,70.82
2019-01-24T07:57:47.074Z,70.60
2019-01-24T08:00:13.743Z,70.70
2019-01-24T08:02:40.696Z,68.43
2019-01-24T08:05:07.800Z,72.40
2019-01-24T08:07:34.759Z,66.60
2019-01-24T08:10:01.502Z,61.07
2019-01-24T08:12:28.141Z,56.00
2019-01-24T08:14:54.963Z,64.20
2019-01-24T08:17:21.687Z,59.77
2019-01-24T08:19:48.718Z,55.97
2019-01-24T08:22:15.333Z,61.40
2019-01-24T08:24:42.109Z,61.00
2019-01-24T08:27:08.752Z,61.13
2019-01-24T08:29:37.187Z,57.13
2019-01-24T08:32:04.470Z,52.30
2019-01-24T08:34:31.445Z,47.50
2019-01-24T08:37:01.562Z,51.83
2019-01-24T08:39:31.272Z,52.73
2019-01-24T08:42:02.803Z,51.47
2019-01-24T08:44:36.449Z,57.00
2019-01-24T08:47:07.790Z,53.23
2019-01-24T08:49:36.650Z,60.10
2019-01-24T08:52:10.930Z,56.87
2019-01-24T08:54:40.475Z,62.40
2019-01-24T08:57:09.414Z,63.97
2019-01-24T08:59:42.114Z,64.80
2019-01-24T09:02:08.771Z,68.97
2019-01-24T09:04:36.699Z,63.40
2019-01-24T09:07:04.737Z,68.23
2019-01-24T09:09:31.665Z,72.90
2019-01-24T09:11:58.361Z,71.05
2019-01-24T09:14:26.078Z,74.45
2019-01-24T09:16:52.742Z,78.97
2019-01-24T09:19:21.198Z,62.14
2019-01-24T09:21:51.057Z,74.40
2019-01-24T09:24:18.178Z,64.97
2019-01-24T09:26:44.944Z,65.20
2019-01-24T09:29:11.954Z,72.40
2019-01-24T09:31:40.919Z,68.47
2019-01-24T09:34:09.220Z,61.50
2019-01-24T09:36:37.144Z,60.37
2019-01-24T09:39:04.223Z,63.77
2019-01-24T09:41:31.421Z,63.05
2019-01-24T09:43:58.096Z,63.80
2019-01-24T09:46:25.077Z,60.40
2019-01-24T09:48:51.741Z,63.20
2019-01-24T09:51:18.694Z,61.93
2019-01-24T09:53:45.485Z,60.50
2019-01-24T09:56:12.316Z,64.00
2019-01-24T09:58:38.998Z,53.40
2019-01-24T10:01:06.039Z,69.57
2019-01-24T10:03:32.697Z,62.27
2019-01-24T10:05:59.542Z,61.27
2019-01-24T10:08:26.563Z,59.20
2019-01-24T10:10:53.541Z,64.03
2019-01-24T10:13:21.906Z,61.80
2019-01-24T10:15:48.703Z,56.57
2019-01-24T10:18:21.468Z,55.17
2019-01-24T10:20:44.122Z,53.93
2019-01-24T10:23:10.765Z,67.03
2019-01-24T10:25:38.228Z,59.63
2019-01-24T10:28:05.062Z,61.07
2019-01-24T10:30:31.841Z,54.00
2019-01-24T10:32:59.591Z,53.67
2019-01-24T10:35:26.255Z,58.30
2019-01-24T10:37:53.460Z,67.53
2019-01-24T10:40:22.648Z,64.70
2019-01-24T10:42:50.939Z,54.73
2019-01-24T10:45:17.662Z,59.17
2019-01-24T10:47:47.229Z,68.77
2019-01-24T10:50:17.866Z,63.60
2019-01-24T10:52:46.606Z,50.10
2019-01-24T10:55:17.469Z,55.50
2019-01-24T10:57:44.720Z,57.63
2019-01-24T11:00:11.662Z,55.03
2019-01-24T11:02:38.515Z,56.53
2019-01-24T11:05:05.389Z,58.73
2019-01-24T11:07:32.475Z,53.52
2019-01-24T11:09:59.483Z,55.63
2019-01-24T11:12:26.930Z,48.35
2019-01-24T11:14:55.072Z,52.03
2019-01-24T11:17:22.895Z,45.20
2019-01-24T11:19:49.722Z,44.40
2019-01-24T11:22:16.742Z,45.97
2019-01-24T11:24:43.717Z,44.50
2019-01-24T11:27:10.851Z,42.57
2019-01-24T11:29:39.454Z,42.93
2019-01-24T11:32:06.548Z,47.80
2019-01-24T11:34:33.458Z,44.67
2019-01-24T11:37:00.260Z,44.40
2019-01-24T11:39:27.298Z,42.05
2019-01-24T11:41:54.118Z,42.20
2019-01-24T11:44:21.115Z,36.07
2019-01-24T11:46:48.050Z,42.03
2019-01-24T11:49:15.071Z,42.58
2019-01-24T11:51:42.040Z,38.87
2019-01-24T11:54:08.694Z,40.27
2019-01-24T11:56:35.451Z,37.87
2019-01-24T11:59:02.142Z,36.43
2019-01-24T12:01:29.065Z,38.67
2019-01-24T12:03:55.891Z,47.67
2019-01-24T12:06:23.892Z,43.58
2019-01-24T12:08:50.509Z,51.63
2019-01-24T12:11:17.448Z,46.80
2019-01-24T12:13:44.780Z,43.10
2019-01-24T12:16:11.697Z,49.50
2019-01-24T12:18:39.032Z,47.30
2019-01-24T12:21:05.814Z,42.20
2019-01-24T12:23:32.595Z,43.57
2019-01-24T12:26:02.667Z,41.77
2019-01-24T12:28:29.538Z,42.93
2019-01-24T12:30:56.463Z,47.57
2019-01-24T12:33:24.042Z,44.45
2019-01-24T12:35:51.175Z,48.43
2019-01-24T12:38:21.037Z,47.40
2019-01-24T12:40:49.021Z,46.23
2019-01-24T12:43:16.633Z,43.63
2019-01-24T12:45:43.408Z,43.20
2019-01-24T12:48:14.684Z,42.90
2019-01-24T12:53:32.864Z,40.63
2019-01-24T12:56:00.435Z,40.10
2019-01-24T12:58:28.137Z,43.13
2019-01-24T13:00:59.432Z,41.83
2019-01-24T13:03:26.255Z,43.90
2019-01-24T13:05:54.384Z,42.90
2019-01-24T13:08:21.041Z,44.00
2019-01-24T13:10:48.055Z,46.67
2019-01-24T13:13:15.203Z,49.50
2019-01-24T13:15:42.325Z,46.92
2019-01-24T13:18:09.195Z,48.53
2019-01-24T13:20:36.162Z,51.87
2019-01-24T13:23:03.202Z,47.80
2019-01-24T13:25:30.384Z,42.93
2019-01-24T13:27:57.595Z,50.17
2019-01-24T13:30:29.259Z,50.60
2019-01-24T13:33:13.288Z,53.70
2019-01-24T13:35:46.207Z,50.70
2019-01-24T13:38:13.103Z,49.23
2019-01-24T13:40:41.222Z,51.45
2019-01-24T13:43:13.074Z,53.13
2019-01-24T13:45:43.959Z,47.47
2019-01-24T13:48:15.908Z,52.73
2019-01-24T13:50:47.142Z,41.97
2019-01-24T13:53:15.667Z,51.02
2019-01-24T13:55:47.816Z,55.53
2019-01-24T13:58:19.481Z,46.87
2019-01-24T14:00:49.555Z,49.23
2019-01-24T14:03:19.899Z,45.67
2019-01-24T14:05:47.875Z,51.97
2019-01-24T14:08:17.956Z,47.10
2019-01-24T14:10:49.881Z,56.43
2019-01-24T14:13:21.468Z,52.53
2019-01-24T14:15:51.587Z,51.37
2019-01-24T14:18:21.658Z,51.70
2019-01-24T14:20:49.450Z,46.50
2019-01-24T14:23:23.154Z,50.93
2019-01-24T14:25:50.693Z,54.20
2019-01-24T14:28:19.199Z,58.57
2019-01-24T14:30:46.888Z,53.00
2019-01-24T14:33:13.756Z,52.60
2019-01-24T14:35:40.859Z,52.03
2019-01-24T14:38:09.816Z,53.33
2019-01-24T14:40:38.962Z,56.97
2019-01-24T14:43:07.400Z,51.77
2019-01-24T14:45:35.884Z,48.85
2019-01-24T14:48:09.141Z,50.50
2019-01-24T14:50:36.880Z,57.20
2019-01-24T14:53:05.883Z,48.10
2019-01-24T14:55:37.898Z,53.50
2019-01-24T14:58:20.487Z,52.30
2019-01-24T15:00:50.119Z,51.70
2019-01-24T15:03:20.282Z,51.70
2019-01-24T15:05:48.361Z,52.43
2019-01-24T15:08:18.550Z,50.83
2019-01-24T15:10:46.343Z,51.83
2019-01-24T15:13:13.908Z,55.63
2019-01-24T15:15:43.690Z,47.90
2019-01-24T15:18:14.605Z,55.23
2019-01-24T15:20:44.490Z,53.70
2019-01-24T15:23:12.597Z,52.13
2019-01-24T15:25:47.831Z,56.90
2019-01-24T15:28:12.795Z,53.27
2019-01-24T15:30:42.686Z,69.15
2019-01-24T15:33:16.886Z,57.90
2019-01-24T15:35:45.057Z,52.97
2019-01-24T15:38:16.137Z,49.08
2019-01-24T15:40:44.341Z,56.18
2019-01-24T15:43:13.998Z,59.10
2019-01-24T15:45:41.181Z,59.60
2019-01-24T15:48:10.898Z,55.33
2019-01-24T15:50:38.337Z,61.15
2019-01-24T15:53:07.713Z,56.73
2019-01-24T15:55:37.808Z,56.90
2019-01-24T15:58:05.012Z,54.07
2019-01-24T16:00:32.523Z,59.73
2019-01-24T16:02:59.637Z,59.13
2019-01-24T16:05:26.309Z,53.43
2019-01-24T16:07:53.190Z,45.80
2019-01-24T16:10:20.219Z,52.05
2019-01-24T16:12:47.435Z,50.73
2019-01-24T16:15:14.354Z,51.10
2019-01-24T16:17:41.285Z,48.77
2019-01-24T16:20:08.138Z,47.88
2019-01-24T16:22:35.210Z,51.90
2019-01-24T16:25:02.022Z,48.57
2019-01-24T16:27:29.962Z,56.13
2019-01-24T16:30:03.609Z,65.40
2019-01-24T16:35:12.893Z,43.50
2019-01-24T16:37:39.747Z,47.43
2019-01-24T16:40:06.717Z,61.94
2019-01-24T16:42:33.936Z,53.87
2019-01-24T16:45:02.199Z,61.42
2019-01-24T16:47:28.990Z,54.13
2019-01-24T16:49:55.979Z,44.93
2019-01-24T16:52:22.911Z,61.57
2019-01-24T16:54:49.627Z,53.27
2019-01-24T16:57:16.328Z,50.17
2019-01-24T16:59:43.091Z,48.63
2019-01-24T17:02:09.690Z,56.20
2019-01-24T17:04:37.549Z,55.50
2019-01-24T17:07:04.149Z,61.13
2019-01-24T17:09:31.979Z,49.37
2019-01-24T17:11:58.949Z,53.50
2019-01-24T17:14:26.546Z,62.03
2019-01-24T17:16:54.399Z,46.87
2019-01-24T17:19:22.773Z,58.98
2019-01-24T17:21:49.820Z,54.80
2019-01-24T17:24:16.599Z,60.77
2019-01-24T17:26:43.289Z,58.97
2019-01-24T17:29:09.886Z,65.03
2019-01-24T17:31:36.809Z,52.27
2019-01-24T17:34:04.343Z,47.30
2019-01-24T17:36:31.019Z,48.97
2019-01-24T17:38:59.000Z,52.37
2019-01-24T17:41:26.482Z,58.00
2019-01-24T17:43:54.150Z,52.20
2019-01-24T17:46:21.019Z,55.83
2019-01-24T17:48:55.427Z,55.87
2019-01-24T17:51:19.445Z,67.82
2019-01-24T17:53:47.176Z,65.80
2019-01-24T17:56:16.485Z,51.10
2019-01-24T17:58:43.212Z,53.87
2019-01-24T18:01:23.950Z,59.53
2019-01-24T18:03:38.267Z,53.63
2019-01-24T18:06:05.184Z,56.28
2019-01-24T18:08:33.655Z,57.84
2019-01-24T18:11:00.796Z,50.83
2019-01-24T18:13:28.505Z,66.93
2019-01-24T18:15:55.468Z,63.40
2019-01-24T18:18:22.456Z,60.20
2019-01-24T18:20:50.755Z,59.40
2019-01-24T18:23:17.832Z,44.30
2019-01-24T18:25:44.568Z,41.17
2019-01-24T18:28:15.942Z,45.83
2019-01-24T18:30:40.086Z,28.70
2019-01-24T18:33:08.959Z,25.47
2019-01-24T18:35:39.813Z,26.52
2019-01-24T18:38:07.064Z,26.57
2019-01-24T18:40:37.179Z,24.66
2019-01-24T18:43:10.677Z,17.60
2019-01-24T18:45:44.495Z,20.40
2019-01-24T18:48:14.874Z,19.70
2019-01-24T18:53:29.431Z,21.02
2019-01-24T18:56:00.411Z,18.00
2019-01-24T18:58:28.623Z,18.87
2019-01-24T19:00:58.344Z,17.93
2019-01-24T19:03:25.627Z,16.85
2019-01-24T19:05:52.494Z,16.83
2019-01-24T19:08:19.404Z,18.07
2019-01-24T19:10:46.040Z,17.17
2019-01-24T19:13:14.488Z,15.57
2019-01-24T19:15:42.240Z,16.93
2019-01-24T19:18:08.879Z,18.77
2019-01-24T19:23:23.897Z,20.90
2019-01-24T19:25:51.894Z,17.83
2019-01-24T19:28:22.801Z,17.77
2019-01-24T19:30:50.901Z,17.53
2019-01-24T19:33:18.610Z,17.13
2019-01-24T19:35:46.576Z,16.40
2019-01-24T19:38:13.582Z,16.93
2019-01-24T19:40:41.056Z,16.10
2019-01-24T19:43:07.775Z,16.87
2019-01-24T19:45:34.693Z,17.67
2019-01-24T19:48:02.570Z,17.87
2019-01-24T19:50:30.237Z,17.07
2019-01-24T19:52:58.821Z,16.73
2019-01-24T19:55:25.778Z,16.80
2019-01-24T19:57:56.114Z,17.30
2019-01-24T20:00:23.215Z,15.77
2019-01-24T20:02:51.025Z,16.07
2019-01-24T20:05:19.131Z,15.33
2019-01-24T20:07:46.824Z,16.30
2019-01-24T20:10:14.633Z,18.53
2019-01-24T20:12:41.301Z,16.73
2019-01-24T20:15:08.077Z,20.20
2019-01-24T20:17:35.717Z,18.53
2019-01-24T20:20:03.419Z,15.03
2019-01-24T20:22:30.409Z,18.10
2019-01-24T20:24:57.217Z,17.95
2019-01-24T20:27:24.232Z,17.83
2019-01-24T20:29:51.106Z,17.57
2019-01-24T20:32:18.805Z,16.07
2019-01-24T20:34:46.570Z,16.53
2019-01-24T20:37:13.456Z,18.30
2019-01-24T20:39:40.792Z,17.60
2019-01-24T20:42:07.739Z,17.00
2019-01-24T20:44:34.780Z,19.93
2019-01-24T20:47:01.561Z,17.03
2019-01-24T20:49:28.260Z,18.47
2019-01-24T20:51:54.892Z,18.50
2019-01-24T20:54:21.725Z,20.93
2019-01-24T20:56:48.952Z,18.65
2019-01-24T20:59:15.718Z,17.77
2019-01-24T21:01:42.344Z,17.73
2019-01-24T21:04:09.202Z,18.17
2019-01-24T21:06:36.276Z,18.05
2019-01-24T21:09:03.228Z,19.70
2019-01-24T21:11:29.908Z,17.03
2019-01-24T21:13:56.602Z,20.40
2019-01-24T21:16:23.360Z,20.17
2019-01-24T21:18:50.255Z,19.52
2019-01-24T21:21:16.942Z,15.77
2019-01-24T21:23:43.555Z,17.77
2019-01-24T21:26:11.984Z,19.12
2019-01-24T21:28:38.669Z,18.30
2019-01-24T21:31:05.328Z,19.77
2019-01-24T21:33:32.001Z,17.47
2019-01-24T21:35:58.684Z,18.57
2019-01-24T21:38:25.610Z,19.95
2019-01-24T21:40:52.673Z,15.95
2019-01-24T21:43:19.625Z,17.12
2019-01-24T21:45:46.231Z,15.83
2019-01-24T21:48:13.266Z,17.43
2019-01-24T21:50:40.114Z,16.80
2019-01-24T21:53:06.718Z,18.23
2019-01-24T21:55:33.345Z,19.30
2019-01-24T21:58:00.058Z,16.93
2019-01-24T22:00:26.784Z,16.87
2019-01-24T22:02:53.450Z,19.00
2019-01-24T22:05:20.324Z,20.35
2019-01-24T22:07:47.260Z,15.43
2019-01-24T22:10:13.996Z,18.90
2019-01-24T22:12:42.528Z,18.62
2019-01-24T22:15:09.230Z,17.40
2019-01-24T22:17:36.175Z,15.17
2019-01-24T22:20:03.235Z,16.83
2019-01-24T22:22:30.236Z,16.87
2019-01-24T22:24:57.254Z,17.60
2019-01-24T22:27:24.538Z,17.50
2019-01-24T22:29:51.322Z,16.73
2019-01-24T22:32:18.265Z,17.20
2019-01-24T22:34:45.267Z,19.23
2019-01-24T22:37:12.681Z,17.82
2019-01-24T22:39:39.464Z,14.97
2019-01-24T22:42:06.455Z,16.93
2019-01-24T22:44:33.550Z,18.70
2019-01-24T22:47:00.467Z,19.10
2019-01-24T22:49:27.382Z,18.98
2019-01-24T22:51:54.040Z,16.63
2019-01-24T22:54:21.043Z,17.87
2019-01-24T22:56:48.151Z,18.20
2019-01-24T22:59:14.861Z,18.50
2019-01-24T23:01:43.029Z,20.30
2019-01-24T23:04:09.825Z,18.67
2019-01-24T23:06:36.812Z,22.80
2019-01-24T23:09:04.194Z,21.27
2019-01-24T23:11:30.875Z,18.17
2019-01-24T23:13:57.835Z,18.40
2019-01-24T23:16:24.521Z,22.07
2019-01-24T23:18:51.216Z,27.10
2019-01-24T23:21:17.921Z,26.27
2019-01-24T23:23:44.640Z,19.47
2019-01-24T23:26:11.338Z,21.23
2019-01-24T23:28:38.150Z,22.27
2019-01-24T23:31:05.099Z,21.10
2019-01-24T23:33:31.856Z,24.87
2019-01-24T23:35:58.444Z,20.77
2019-01-24T23:38:25.110Z,17.43
2019-01-24T23:40:51.848Z,16.93
2019-01-24T23:43:18.552Z,21.87
2019-01-24T23:45:46.078Z,15.37
2019-01-24T23:48:13.592Z,18.25
2019-01-24T23:50:40.330Z,17.47
2019-01-24T23:53:07.322Z,16.90
2019-01-24T23:55:34.020Z,18.67
2019-01-24T23:58:00.649Z,15.87
